sensor_id;sensor_type;location;lat;lon;timestamp;P1;durP1;ratioP1;P2;durP2;ratioP2
55314;SDS011;41619;42.816;23.226;2023-03-03T00:02:06;6.72;;;5.15;;
55314;SDS011;41619;42.816;23.226;2023-03-03T00:04:31;8.20;;;4.88;;
55314;SDS011;41619;42.816;23.226;2023-03-03T00:06:57;5.80;;;4.50;;
55314;SDS011;41619;42.816;23.226;2023-03-03T00:09:22;6.90;;;5.00;;
55314;SDS011;41619;42.816;23.226;2023-03-03T00:11:49;6.22;;;4.70;;
55314;SDS011;41619;42.816;23.226;2023-03-03T00:14:24;6.70;;;5.10;;
55314;SDS011;41619;42.816;23.226;2023-03-03T00:16:54;8.25;;;5.10;;
55314;SDS011;41619;42.816;23.226;2023-03-03T00:19:20;8.85;;;4.97;;
55314;SDS011;41619;42.816;23.226;2023-03-03T00:21:48;7.57;;;4.53;;
55314;SDS011;41619;42.816;23.226;2023-03-03T00:24:30;7.20;;;5.23;;
55314;SDS011;41619;42.816;23.226;2023-03-03T00:27:01;6.80;;;4.57;;
55314;SDS011;41619;42.816;23.226;2023-03-03T00:29:44;6.28;;;4.43;;
55314;SDS011;41619;42.816;23.226;2023-03-03T00:34:52;8.65;;;5.60;;
55314;SDS011;41619;42.816;23.226;2023-03-03T00:37:32;6.35;;;5.07;;
55314;SDS011;41619;42.816;23.226;2023-03-03T00:42:48;7.95;;;5.05;;
55314;SDS011;41619;42.816;23.226;2023-03-03T00:45:17;9.60;;;5.28;;
55314;SDS011;41619;42.816;23.226;2023-03-03T00:47:51;6.15;;;4.90;;
55314;SDS011;41619;42.816;23.226;2023-03-03T00:50:20;6.78;;;5.10;;
55314;SDS011;41619;42.816;23.226;2023-03-03T00:52:52;9.13;;;5.68;;
55314;SDS011;41619;42.816;23.226;2023-03-03T00:55:22;9.43;;;5.05;;
55314;SDS011;41619;42.816;23.226;2023-03-03T00:57:48;6.40;;;4.88;;
55314;SDS011;41619;42.816;23.226;2023-03-03T01:00:13;7.88;;;5.93;;
55314;SDS011;41619;42.816;23.226;2023-03-03T01:02:39;6.15;;;4.88;;
55314;SDS011;41619;42.816;23.226;2023-03-03T01:05:04;6.53;;;5.00;;
55314;SDS011;41619;42.816;23.226;2023-03-03T01:07:30;8.95;;;5.47;;
55314;SDS011;41619;42.816;23.226;2023-03-03T01:09:55;8.10;;;5.35;;
55314;SDS011;41619;42.816;23.226;2023-03-03T01:12:22;8.57;;;5.68;;
55314;SDS011;41619;42.816;23.226;2023-03-03T01:14:48;8.20;;;5.32;;
55314;SDS011;41619;42.816;23.226;2023-03-03T01:17:16;10.20;;;6.43;;
55314;SDS011;41619;42.816;23.226;2023-03-03T01:19:42;7.38;;;5.35;;
55314;SDS011;41619;42.816;23.226;2023-03-03T01:22:07;7.82;;;5.78;;
55314;SDS011;41619;42.816;23.226;2023-03-03T01:24:33;8.63;;;6.13;;
55314;SDS011;41619;42.816;23.226;2023-03-03T01:26:58;6.97;;;5.45;;
55314;SDS011;41619;42.816;23.226;2023-03-03T01:29:23;8.77;;;5.88;;
55314;SDS011;41619;42.816;23.226;2023-03-03T01:31:49;9.70;;;5.65;;
55314;SDS011;41619;42.816;23.226;2023-03-03T01:34:14;9.63;;;5.90;;
55314;SDS011;41619;42.816;23.226;2023-03-03T01:36:40;7.97;;;5.80;;
55314;SDS011;41619;42.816;23.226;2023-03-03T01:39:05;9.02;;;5.72;;
55314;SDS011;41619;42.816;23.226;2023-03-03T01:41:30;8.80;;;5.85;;
55314;SDS011;41619;42.816;23.226;2023-03-03T01:43:57;9.77;;;6.28;;
55314;SDS011;41619;42.816;23.226;2023-03-03T01:49:22;15.23;;;7.85;;
55314;SDS011;41619;42.816;23.226;2023-03-03T01:52:03;12.90;;;7.20;;
55314;SDS011;41619;42.816;23.226;2023-03-03T01:54:37;9.70;;;6.50;;
55314;SDS011;41619;42.816;23.226;2023-03-03T01:57:11;10.07;;;5.57;;
55314;SDS011;41619;42.816;23.226;2023-03-03T01:59:41;8.93;;;6.00;;
55314;SDS011;41619;42.816;23.226;2023-03-03T02:02:10;9.15;;;6.85;;
55314;SDS011;41619;42.816;23.226;2023-03-03T02:04:35;7.20;;;5.50;;
55314;SDS011;41619;42.816;23.226;2023-03-03T02:07:01;8.35;;;5.88;;
55314;SDS011;41619;42.816;23.226;2023-03-03T02:09:51;8.25;;;6.15;;
55314;SDS011;41619;42.816;23.226;2023-03-03T02:14:52;7.18;;;5.63;;
55314;SDS011;41619;42.816;23.226;2023-03-03T02:17:17;7.57;;;5.63;;
55314;SDS011;41619;42.816;23.226;2023-03-03T02:22:37;8.60;;;5.50;;
55314;SDS011;41619;42.816;23.226;2023-03-03T02:25:10;9.90;;;5.85;;
55314;SDS011;41619;42.816;23.226;2023-03-03T02:27:42;11.73;;;6.10;;
55314;SDS011;41619;42.816;23.226;2023-03-03T02:30:18;11.13;;;6.53;;
55314;SDS011;41619;42.816;23.226;2023-03-03T02:32:45;10.23;;;6.32;;
55314;SDS011;41619;42.816;23.226;2023-03-03T02:35:27;8.38;;;6.13;;
55314;SDS011;41619;42.816;23.226;2023-03-03T02:37:58;11.27;;;6.78;;
55314;SDS011;41619;42.816;23.226;2023-03-03T02:41:05;8.80;;;6.57;;
55314;SDS011;41619;42.816;23.226;2023-03-03T02:43:43;10.40;;;6.32;;
55314;SDS011;41619;42.816;23.226;2023-03-03T02:46:15;8.55;;;6.22;;
55314;SDS011;41619;42.816;23.226;2023-03-03T02:48:40;9.30;;;6.35;;
55314;SDS011;41619;42.816;23.226;2023-03-03T02:51:05;8.68;;;6.32;;
55314;SDS011;41619;42.816;23.226;2023-03-03T02:53:31;8.27;;;6.03;;
55314;SDS011;41619;42.816;23.226;2023-03-03T02:55:56;10.93;;;6.70;;
55314;SDS011;41619;42.816;23.226;2023-03-03T02:58:22;8.13;;;5.65;;
55314;SDS011;41619;42.816;23.226;2023-03-03T03:00:47;8.10;;;5.53;;
55314;SDS011;41619;42.816;23.226;2023-03-03T03:03:13;8.35;;;5.90;;
55314;SDS011;41619;42.816;23.226;2023-03-03T03:05:38;8.63;;;6.03;;
55314;SDS011;41619;42.816;23.226;2023-03-03T03:08:04;8.93;;;6.13;;
55314;SDS011;41619;42.816;23.226;2023-03-03T03:10:29;7.95;;;5.70;;
55314;SDS011;41619;42.816;23.226;2023-03-03T03:12:55;8.35;;;5.78;;
55314;SDS011;41619;42.816;23.226;2023-03-03T03:15:20;11.95;;;6.40;;
55314;SDS011;41619;42.816;23.226;2023-03-03T03:17:46;8.07;;;5.97;;
55314;SDS011;41619;42.816;23.226;2023-03-03T03:20:11;10.23;;;6.25;;
55314;SDS011;41619;42.816;23.226;2023-03-03T03:22:37;9.85;;;6.78;;
55314;SDS011;41619;42.816;23.226;2023-03-03T03:25:02;7.75;;;6.00;;
55314;SDS011;41619;42.816;23.226;2023-03-03T03:27:28;9.00;;;6.18;;
55314;SDS011;41619;42.816;23.226;2023-03-03T03:29:53;10.45;;;7.13;;
55314;SDS011;41619;42.816;23.226;2023-03-03T03:32:18;10.32;;;7.13;;
55314;SDS011;41619;42.816;23.226;2023-03-03T03:34:44;9.95;;;6.55;;
55314;SDS011;41619;42.816;23.226;2023-03-03T03:37:09;9.40;;;6.65;;
55314;SDS011;41619;42.816;23.226;2023-03-03T03:39:35;10.93;;;6.63;;
55314;SDS011;41619;42.816;23.226;2023-03-03T03:42:00;11.05;;;7.15;;
55314;SDS011;41619;42.816;23.226;2023-03-03T03:44:26;12.88;;;7.82;;
55314;SDS011;41619;42.816;23.226;2023-03-03T03:46:51;12.88;;;7.15;;
55314;SDS011;41619;42.816;23.226;2023-03-03T03:49:17;11.00;;;7.18;;
55314;SDS011;41619;42.816;23.226;2023-03-03T03:51:42;11.63;;;6.78;;
55314;SDS011;41619;42.816;23.226;2023-03-03T03:54:08;10.15;;;6.75;;
55314;SDS011;41619;42.816;23.226;2023-03-03T03:56:33;12.95;;;7.28;;
55314;SDS011;41619;42.816;23.226;2023-03-03T03:58:59;15.75;;;8.57;;
55314;SDS011;41619;42.816;23.226;2023-03-03T04:01:25;14.27;;;8.57;;
55314;SDS011;41619;42.816;23.226;2023-03-03T04:03:51;12.82;;;8.35;;
55314;SDS011;41619;42.816;23.226;2023-03-03T04:06:16;15.50;;;8.27;;
55314;SDS011;41619;42.816;23.226;2023-03-03T04:08:42;13.20;;;8.32;;
55314;SDS011;41619;42.816;23.226;2023-03-03T04:11:08;11.57;;;7.85;;
55314;SDS011;41619;42.816;23.226;2023-03-03T04:13:33;13.07;;;8.45;;
55314;SDS011;41619;42.816;23.226;2023-03-03T04:15:59;13.05;;;8.77;;
55314;SDS011;41619;42.816;23.226;2023-03-03T04:18:26;13.00;;;9.02;;
55314;SDS011;41619;42.816;23.226;2023-03-03T04:20:51;17.48;;;9.15;;
55314;SDS011;41619;42.816;23.226;2023-03-03T04:23:18;15.18;;;9.80;;
55314;SDS011;41619;42.816;23.226;2023-03-03T04:25:47;13.85;;;8.80;;
55314;SDS011;41619;42.816;23.226;2023-03-03T04:28:14;13.63;;;9.38;;
55314;SDS011;41619;42.816;23.226;2023-03-03T04:30:40;13.90;;;9.65;;
55314;SDS011;41619;42.816;23.226;2023-03-03T04:33:05;15.63;;;9.88;;
55314;SDS011;41619;42.816;23.226;2023-03-03T04:35:30;17.90;;;9.98;;
55314;SDS011;41619;42.816;23.226;2023-03-03T04:37:56;17.58;;;11.05;;
55314;SDS011;41619;42.816;23.226;2023-03-03T04:40:21;20.83;;;14.23;;
55314;SDS011;41619;42.816;23.226;2023-03-03T04:42:47;17.52;;;10.15;;
55314;SDS011;41619;42.816;23.226;2023-03-03T04:45:12;16.70;;;10.75;;
55314;SDS011;41619;42.816;23.226;2023-03-03T04:47:37;16.48;;;9.95;;
55314;SDS011;41619;42.816;23.226;2023-03-03T04:50:03;18.10;;;10.63;;
55314;SDS011;41619;42.816;23.226;2023-03-03T04:52:30;19.65;;;12.35;;
55314;SDS011;41619;42.816;23.226;2023-03-03T04:54:55;23.13;;;12.75;;
55314;SDS011;41619;42.816;23.226;2023-03-03T04:57:20;21.00;;;12.50;;
55314;SDS011;41619;42.816;23.226;2023-03-03T04:59:46;19.48;;;12.02;;
55314;SDS011;41619;42.816;23.226;2023-03-03T05:02:11;18.52;;;11.27;;
55314;SDS011;41619;42.816;23.226;2023-03-03T05:04:37;22.20;;;11.45;;
55314;SDS011;41619;42.816;23.226;2023-03-03T05:07:02;19.98;;;12.63;;
55314;SDS011;41619;42.816;23.226;2023-03-03T05:09:28;20.90;;;12.60;;
55314;SDS011;41619;42.816;23.226;2023-03-03T05:11:53;20.50;;;11.85;;
55314;SDS011;41619;42.816;23.226;2023-03-03T05:14:19;20.55;;;11.18;;
55314;SDS011;41619;42.816;23.226;2023-03-03T05:16:44;18.02;;;11.10;;
55314;SDS011;41619;42.816;23.226;2023-03-03T05:19:10;19.02;;;11.48;;
55314;SDS011;41619;42.816;23.226;2023-03-03T05:21:37;21.98;;;13.55;;
55314;SDS011;41619;42.816;23.226;2023-03-03T05:24:06;30.40;;;12.65;;
55314;SDS011;41619;42.816;23.226;2023-03-03T05:26:32;18.05;;;11.07;;
55314;SDS011;41619;42.816;23.226;2023-03-03T05:28:58;18.15;;;11.73;;
55314;SDS011;41619;42.816;23.226;2023-03-03T05:31:23;21.30;;;12.00;;
55314;SDS011;41619;42.816;23.226;2023-03-03T05:33:51;20.08;;;12.18;;
55314;SDS011;41619;42.816;23.226;2023-03-03T05:36:16;23.55;;;12.25;;
55314;SDS011;41619;42.816;23.226;2023-03-03T05:38:42;19.83;;;12.05;;
55314;SDS011;41619;42.816;23.226;2023-03-03T05:41:07;20.23;;;12.27;;
55314;SDS011;41619;42.816;23.226;2023-03-03T05:43:33;20.63;;;12.40;;
55314;SDS011;41619;42.816;23.226;2023-03-03T05:45:59;20.42;;;12.80;;
55314;SDS011;41619;42.816;23.226;2023-03-03T05:48:25;19.75;;;12.57;;
55314;SDS011;41619;42.816;23.226;2023-03-03T05:50:50;22.63;;;11.82;;
55314;SDS011;41619;42.816;23.226;2023-03-03T05:53:16;21.13;;;12.60;;
55314;SDS011;41619;42.816;23.226;2023-03-03T05:55:42;20.63;;;12.60;;
55314;SDS011;41619;42.816;23.226;2023-03-03T05:58:07;21.80;;;11.82;;
55314;SDS011;41619;42.816;23.226;2023-03-03T06:00:33;20.10;;;12.52;;
55314;SDS011;41619;42.816;23.226;2023-03-03T06:02:58;25.20;;;14.93;;
55314;SDS011;41619;42.816;23.226;2023-03-03T06:05:24;23.88;;;14.73;;
55314;SDS011;41619;42.816;23.226;2023-03-03T06:07:49;23.98;;;14.13;;
55314;SDS011;41619;42.816;23.226;2023-03-03T06:10:14;23.13;;;13.63;;
55314;SDS011;41619;42.816;23.226;2023-03-03T06:12:40;24.25;;;12.68;;
55314;SDS011;41619;42.816;23.226;2023-03-03T06:15:06;19.38;;;11.88;;
55314;SDS011;41619;42.816;23.226;2023-03-03T06:17:32;21.20;;;11.45;;
55314;SDS011;41619;42.816;23.226;2023-03-03T06:19:57;22.52;;;12.60;;
55314;SDS011;41619;42.816;23.226;2023-03-03T06:22:23;39.92;;;21.88;;
55314;SDS011;41619;42.816;23.226;2023-03-03T06:24:48;56.75;;;30.00;;
55314;SDS011;41619;42.816;23.226;2023-03-03T06:27:14;63.75;;;35.42;;
55314;SDS011;41619;42.816;23.226;2023-03-03T06:29:39;25.08;;;15.32;;
55314;SDS011;41619;42.816;23.226;2023-03-03T06:32:05;22.33;;;12.07;;
55314;SDS011;41619;42.816;23.226;2023-03-03T06:34:30;21.70;;;11.65;;
55314;SDS011;41619;42.816;23.226;2023-03-03T06:36:55;29.85;;;16.08;;
55314;SDS011;41619;42.816;23.226;2023-03-03T06:39:21;39.90;;;19.58;;
55314;SDS011;41619;42.816;23.226;2023-03-03T06:41:46;20.45;;;12.98;;
55314;SDS011;41619;42.816;23.226;2023-03-03T06:44:12;18.65;;;12.20;;
55314;SDS011;41619;42.816;23.226;2023-03-03T06:46:37;19.10;;;12.00;;
55314;SDS011;41619;42.816;23.226;2023-03-03T06:49:03;19.70;;;12.18;;
55314;SDS011;41619;42.816;23.226;2023-03-03T06:51:35;19.58;;;11.77;;
55314;SDS011;41619;42.816;23.226;2023-03-03T06:54:37;21.67;;;12.57;;
55314;SDS011;41619;42.816;23.226;2023-03-03T06:56:57;19.27;;;12.15;;
55314;SDS011;41619;42.816;23.226;2023-03-03T06:59:25;19.20;;;12.40;;
55314;SDS011;41619;42.816;23.226;2023-03-03T07:01:51;21.40;;;11.57;;
55314;SDS011;41619;42.816;23.226;2023-03-03T07:04:31;21.45;;;11.98;;
55314;SDS011;41619;42.816;23.226;2023-03-03T07:07:14;27.05;;;16.10;;
55314;SDS011;41619;42.816;23.226;2023-03-03T07:09:42;22.58;;;13.25;;
55314;SDS011;41619;42.816;23.226;2023-03-03T07:12:10;19.20;;;11.90;;
55314;SDS011;41619;42.816;23.226;2023-03-03T07:14:43;31.73;;;17.40;;
55314;SDS011;41619;42.816;23.226;2023-03-03T07:17:16;26.80;;;16.00;;
55314;SDS011;41619;42.816;23.226;2023-03-03T07:19:45;20.88;;;12.77;;
55314;SDS011;41619;42.816;23.226;2023-03-03T07:22:14;19.52;;;12.07;;
55314;SDS011;41619;42.816;23.226;2023-03-03T07:24:53;54.70;;;27.58;;
55314;SDS011;41619;42.816;23.226;2023-03-03T07:27:22;23.08;;;13.23;;
55314;SDS011;41619;42.816;23.226;2023-03-03T07:29:50;20.60;;;13.87;;
55314;SDS011;41619;42.816;23.226;2023-03-03T07:32:25;24.08;;;13.82;;
55314;SDS011;41619;42.816;23.226;2023-03-03T07:34:54;20.52;;;12.82;;
55314;SDS011;41619;42.816;23.226;2023-03-03T07:40:05;20.77;;;13.18;;
55314;SDS011;41619;42.816;23.226;2023-03-03T07:42:55;17.73;;;11.43;;
55314;SDS011;41619;42.816;23.226;2023-03-03T07:45:25;19.00;;;12.50;;
55314;SDS011;41619;42.816;23.226;2023-03-03T07:50:50;20.13;;;10.45;;
55314;SDS011;41619;42.816;23.226;2023-03-03T07:53:26;17.85;;;9.45;;
55314;SDS011;41619;42.816;23.226;2023-03-03T07:55:58;18.52;;;11.85;;
55314;SDS011;41619;42.816;23.226;2023-03-03T07:58:33;27.30;;;11.77;;
55314;SDS011;41619;42.816;23.226;2023-03-03T08:04:28;19.85;;;12.00;;
55314;SDS011;41619;42.816;23.226;2023-03-03T08:06:57;23.95;;;14.27;;
55314;SDS011;41619;42.816;23.226;2023-03-03T08:14:35;20.17;;;13.90;;
55314;SDS011;41619;42.816;23.226;2023-03-03T08:17:16;25.00;;;17.15;;
55314;SDS011;41619;42.816;23.226;2023-03-03T08:19:56;37.55;;;20.17;;
55314;SDS011;41619;42.816;23.226;2023-03-03T08:22:32;24.25;;;16.40;;
55314;SDS011;41619;42.816;23.226;2023-03-03T08:25:02;21.90;;;14.07;;
55314;SDS011;41619;42.816;23.226;2023-03-03T08:27:28;31.90;;;17.73;;
55314;SDS011;41619;42.816;23.226;2023-03-03T08:29:53;31.45;;;18.05;;
55314;SDS011;41619;42.816;23.226;2023-03-03T08:32:18;24.85;;;15.52;;
55314;SDS011;41619;42.816;23.226;2023-03-03T08:34:44;18.23;;;12.43;;
55314;SDS011;41619;42.816;23.226;2023-03-03T08:37:09;22.58;;;13.13;;
55314;SDS011;41619;42.816;23.226;2023-03-03T08:39:35;20.73;;;13.60;;
55314;SDS011;41619;42.816;23.226;2023-03-03T08:42:00;23.02;;;13.48;;
55314;SDS011;41619;42.816;23.226;2023-03-03T08:44:26;26.67;;;14.85;;
55314;SDS011;41619;42.816;23.226;2023-03-03T08:46:51;28.67;;;16.90;;
55314;SDS011;41619;42.816;23.226;2023-03-03T08:49:16;24.25;;;16.15;;
55314;SDS011;41619;42.816;23.226;2023-03-03T08:51:42;21.52;;;14.32;;
55314;SDS011;41619;42.816;23.226;2023-03-03T08:54:07;22.17;;;14.18;;
55314;SDS011;41619;42.816;23.226;2023-03-03T08:56:33;23.08;;;13.85;;
55314;SDS011;41619;42.816;23.226;2023-03-03T08:58:58;27.05;;;14.07;;
55314;SDS011;41619;42.816;23.226;2023-03-03T09:01:24;21.65;;;14.27;;
55314;SDS011;41619;42.816;23.226;2023-03-03T09:03:49;21.95;;;13.07;;
55314;SDS011;41619;42.816;23.226;2023-03-03T09:06:14;23.30;;;13.57;;
55314;SDS011;41619;42.816;23.226;2023-03-03T09:08:40;23.92;;;13.93;;
55314;SDS011;41619;42.816;23.226;2023-03-03T09:11:12;22.80;;;13.77;;
55314;SDS011;41619;42.816;23.226;2023-03-03T09:13:38;22.60;;;14.65;;
55314;SDS011;41619;42.816;23.226;2023-03-03T09:16:13;25.10;;;16.13;;
55314;SDS011;41619;42.816;23.226;2023-03-03T09:18:39;25.83;;;16.05;;
55314;SDS011;41619;42.816;23.226;2023-03-03T09:21:29;25.23;;;15.88;;
55314;SDS011;41619;42.816;23.226;2023-03-03T09:23:58;34.95;;;16.42;;
55314;SDS011;41619;42.816;23.226;2023-03-03T09:28:52;39.88;;;15.60;;
55314;SDS011;41619;42.816;23.226;2023-03-03T09:32:21;31.13;;;16.05;;
55314;SDS011;41619;42.816;23.226;2023-03-03T09:35:01;24.63;;;15.60;;
55314;SDS011;41619;42.816;23.226;2023-03-03T09:37:25;25.08;;;15.48;;
55314;SDS011;41619;42.816;23.226;2023-03-03T09:40:00;27.33;;;16.73;;
55314;SDS011;41619;42.816;23.226;2023-03-03T09:43:01;33.45;;;16.25;;
55314;SDS011;41619;42.816;23.226;2023-03-03T09:45:42;30.52;;;16.77;;
55314;SDS011;41619;42.816;23.226;2023-03-03T09:48:35;26.63;;;14.88;;
55314;SDS011;41619;42.816;23.226;2023-03-03T09:57:05;30.65;;;17.23;;
55314;SDS011;41619;42.816;23.226;2023-03-03T10:02:37;34.10;;;20.05;;
55314;SDS011;41619;42.816;23.226;2023-03-03T10:05:29;23.42;;;15.38;;
55314;SDS011;41619;42.816;23.226;2023-03-03T10:08:16;24.33;;;15.15;;
55314;SDS011;41619;42.816;23.226;2023-03-03T10:18:53;25.63;;;16.25;;
55314;SDS011;41619;42.816;23.226;2023-03-03T10:23:53;29.47;;;17.67;;
55314;SDS011;41619;42.816;23.226;2023-03-03T10:29:49;31.15;;;18.88;;
55314;SDS011;41619;42.816;23.226;2023-03-03T10:32:29;34.45;;;21.58;;
55314;SDS011;41619;42.816;23.226;2023-03-03T10:35:14;28.25;;;16.80;;
55314;SDS011;41619;42.816;23.226;2023-03-03T10:42:51;20.95;;;13.02;;
55314;SDS011;41619;42.816;23.226;2023-03-03T10:53:21;30.52;;;18.70;;
55314;SDS011;41619;42.816;23.226;2023-03-03T11:06:54;22.77;;;12.35;;
55314;SDS011;41619;42.816;23.226;2023-03-03T11:12:46;19.83;;;12.25;;
55314;SDS011;41619;42.816;23.226;2023-03-03T11:23:11;45.58;;;22.65;;
55314;SDS011;41619;42.816;23.226;2023-03-03T11:28:41;26.13;;;15.82;;
55314;SDS011;41619;42.816;23.226;2023-03-03T11:31:27;23.70;;;14.02;;
55314;SDS011;41619;42.816;23.226;2023-03-03T11:36:33;23.13;;;14.13;;
55314;SDS011;41619;42.816;23.226;2023-03-03T11:41:28;29.10;;;19.77;;
55314;SDS011;41619;42.816;23.226;2023-03-03T11:49:20;33.28;;;20.80;;
55314;SDS011;41619;42.816;23.226;2023-03-03T11:57:57;42.13;;;26.58;;
55314;SDS011;41619;42.816;23.226;2023-03-03T12:16:50;72.65;;;30.95;;
55314;SDS011;41619;42.816;23.226;2023-03-03T12:22:30;35.95;;;21.05;;
55314;SDS011;41619;42.816;23.226;2023-03-03T12:27:29;67.45;;;32.33;;
55314;SDS011;41619;42.816;23.226;2023-03-03T12:32:53;90.80;;;42.53;;
55314;SDS011;41619;42.816;23.226;2023-03-03T12:49:16;21.75;;;15.60;;
55314;SDS011;41619;42.816;23.226;2023-03-03T12:51:47;24.85;;;18.02;;
55314;SDS011;41619;42.816;23.226;2023-03-03T12:54:41;25.58;;;18.13;;
55314;SDS011;41619;42.816;23.226;2023-03-03T12:57:37;30.95;;;20.02;;
55314;SDS011;41619;42.816;23.226;2023-03-03T13:02:57;23.35;;;14.60;;
55314;SDS011;41619;42.816;23.226;2023-03-03T13:16:29;25.20;;;18.90;;
55314;SDS011;41619;42.816;23.226;2023-03-03T13:19:21;31.50;;;20.67;;
55314;SDS011;41619;42.816;23.226;2023-03-03T13:21:55;27.63;;;18.95;;
55314;SDS011;41619;42.816;23.226;2023-03-03T13:26:58;33.13;;;22.75;;
55314;SDS011;41619;42.816;23.226;2023-03-03T13:29:34;31.88;;;23.42;;
55314;SDS011;41619;42.816;23.226;2023-03-03T13:32:08;50.58;;;28.98;;
55314;SDS011;41619;42.816;23.226;2023-03-03T13:37:20;71.32;;;35.83;;
55314;SDS011;41619;42.816;23.226;2023-03-03T13:42:18;14.50;;;11.45;;
55314;SDS011;41619;42.816;23.226;2023-03-03T13:44:51;19.05;;;14.93;;
55314;SDS011;41619;42.816;23.226;2023-03-03T13:59:44;18.20;;;12.53;;
55314;SDS011;41619;42.816;23.226;2023-03-03T14:04:39;16.98;;;11.82;;
55314;SDS011;41619;42.816;23.226;2023-03-03T14:07:49;12.93;;;9.98;;
55314;SDS011;41619;42.816;23.226;2023-03-03T14:10:36;14.50;;;8.77;;
55314;SDS011;41619;42.816;23.226;2023-03-03T14:13:21;15.50;;;9.23;;
55314;SDS011;41619;42.816;23.226;2023-03-03T14:18:45;17.63;;;11.73;;
55314;SDS011;41619;42.816;23.226;2023-03-03T14:24:29;11.65;;;7.90;;
55314;SDS011;41619;42.816;23.226;2023-03-03T14:26:55;80.40;;;35.80;;
55314;SDS011;41619;42.816;23.226;2023-03-03T14:31:51;18.50;;;10.60;;
55314;SDS011;41619;42.816;23.226;2023-03-03T14:36:49;24.85;;;14.35;;
55314;SDS011;41619;42.816;23.226;2023-03-03T14:39:34;19.63;;;11.32;;
55314;SDS011;41619;42.816;23.226;2023-03-03T14:42:09;19.35;;;11.05;;
55314;SDS011;41619;42.816;23.226;2023-03-03T14:49:35;59.25;;;29.88;;
55314;SDS011;41619;42.816;23.226;2023-03-03T14:52:09;68.10;;;35.13;;
55314;SDS011;41619;42.816;23.226;2023-03-03T14:54:40;74.63;;;36.35;;
55314;SDS011;41619;42.816;23.226;2023-03-03T14:59:39;51.00;;;37.90;;
55314;SDS011;41619;42.816;23.226;2023-03-03T15:04:44;10.35;;;7.72;;
55314;SDS011;41619;42.816;23.226;2023-03-03T15:10:06;25.98;;;14.98;;
55314;SDS011;41619;42.816;23.226;2023-03-03T15:12:37;16.45;;;11.07;;
55314;SDS011;41619;42.816;23.226;2023-03-03T15:17:37;50.30;;;25.30;;
55314;SDS011;41619;42.816;23.226;2023-03-03T15:20:17;21.60;;;14.07;;
55314;SDS011;41619;42.816;23.226;2023-03-03T15:25:41;28.65;;;16.02;;
55314;SDS011;41619;42.816;23.226;2023-03-03T15:42:10;71.05;;;29.90;;
55314;SDS011;41619;42.816;23.226;2023-03-03T15:47:20;73.57;;;29.67;;
55314;SDS011;41619;42.816;23.226;2023-03-03T15:52:44;102.60;;;34.83;;
55314;SDS011;41619;42.816;23.226;2023-03-03T16:03:31;25.80;;;14.50;;
55314;SDS011;41619;42.816;23.226;2023-03-03T16:08:44;16.30;;;10.32;;
55314;SDS011;41619;42.816;23.226;2023-03-03T16:16:50;22.48;;;10.75;;
55314;SDS011;41619;42.816;23.226;2023-03-03T16:27:06;48.45;;;20.67;;
55314;SDS011;41619;42.816;23.226;2023-03-03T16:32:41;24.85;;;11.73;;
55314;SDS011;41619;42.816;23.226;2023-03-03T16:35:28;16.65;;;8.82;;
55314;SDS011;41619;42.816;23.226;2023-03-03T16:38:01;16.88;;;9.88;;
55314;SDS011;41619;42.816;23.226;2023-03-03T16:45:40;27.33;;;13.20;;
55314;SDS011;41619;42.816;23.226;2023-03-03T16:51:15;19.75;;;12.27;;
55314;SDS011;41619;42.816;23.226;2023-03-03T16:54:09;19.35;;;10.10;;
55314;SDS011;41619;42.816;23.226;2023-03-03T17:07:19;20.02;;;12.50;;
55314;SDS011;41619;42.816;23.226;2023-03-03T17:56:56;20.88;;;15.15;;
55314;SDS011;41619;42.816;23.226;2023-03-03T18:32:43;34.80;;;19.17;;
55314;SDS011;41619;42.816;23.226;2023-03-03T18:37:55;18.20;;;12.95;;
55314;SDS011;41619;42.816;23.226;2023-03-03T18:40:28;18.17;;;13.20;;
55314;SDS011;41619;42.816;23.226;2023-03-03T18:42:56;15.25;;;11.05;;
55314;SDS011;41619;42.816;23.226;2023-03-03T18:50:39;14.57;;;10.35;;
55314;SDS011;41619;42.816;23.226;2023-03-03T18:55:41;27.45;;;16.40;;
55314;SDS011;41619;42.816;23.226;2023-03-03T19:00:48;52.47;;;28.30;;
55314;SDS011;41619;42.816;23.226;2023-03-03T19:06:11;60.97;;;31.83;;
55314;SDS011;41619;42.816;23.226;2023-03-03T19:11:50;87.20;;;46.50;;
55314;SDS011;41619;42.816;23.226;2023-03-03T19:16:56;168.35;;;67.93;;
55314;SDS011;41619;42.816;23.226;2023-03-03T19:19:24;161.10;;;66.47;;
55314;SDS011;41619;42.816;23.226;2023-03-03T19:35:53;76.63;;;28.35;;
55314;SDS011;41619;42.816;23.226;2023-03-03T19:44:21;21.75;;;13.77;;
55314;SDS011;41619;42.816;23.226;2023-03-03T19:50:12;18.95;;;11.05;;
55314;SDS011;41619;42.816;23.226;2023-03-03T19:59:00;16.85;;;12.35;;
55314;SDS011;41619;42.816;23.226;2023-03-03T20:10:12;23.05;;;14.93;;
55314;SDS011;41619;42.816;23.226;2023-03-03T20:12:47;24.60;;;16.23;;
55314;SDS011;41619;42.816;23.226;2023-03-03T20:15:39;25.40;;;16.95;;
55314;SDS011;41619;42.816;23.226;2023-03-03T20:20:50;25.80;;;17.45;;
55314;SDS011;41619;42.816;23.226;2023-03-03T20:23:29;26.10;;;17.83;;
55314;SDS011;41619;42.816;23.226;2023-03-03T20:26:01;29.42;;;19.75;;
55314;SDS011;41619;42.816;23.226;2023-03-03T20:28:40;32.97;;;21.85;;
55314;SDS011;41619;42.816;23.226;2023-03-03T20:39:20;45.90;;;28.08;;
55314;SDS011;41619;42.816;23.226;2023-03-03T20:41:57;56.23;;;29.77;;
55314;SDS011;41619;42.816;23.226;2023-03-03T21:01:04;47.88;;;29.95;;
55314;SDS011;41619;42.816;23.226;2023-03-03T21:06:05;52.45;;;29.35;;
55314;SDS011;41619;42.816;23.226;2023-03-03T21:08:40;49.53;;;29.98;;
55314;SDS011;41619;42.816;23.226;2023-03-03T21:11:11;57.80;;;34.75;;
55314;SDS011;41619;42.816;23.226;2023-03-03T21:13:39;53.77;;;32.13;;
55314;SDS011;41619;42.816;23.226;2023-03-03T21:19:06;52.55;;;30.55;;
55314;SDS011;41619;42.816;23.226;2023-03-03T21:21:35;56.83;;;33.10;;
55314;SDS011;41619;42.816;23.226;2023-03-03T21:24:01;66.72;;;36.28;;
55314;SDS011;41619;42.816;23.226;2023-03-03T21:31:58;55.97;;;31.50;;
55314;SDS011;41619;42.816;23.226;2023-03-03T21:34:27;67.20;;;36.15;;
55314;SDS011;41619;42.816;23.226;2023-03-03T21:37:01;75.47;;;42.08;;
55314;SDS011;41619;42.816;23.226;2023-03-03T21:39:31;70.30;;;38.03;;
55314;SDS011;41619;42.816;23.226;2023-03-03T21:42:03;70.30;;;41.13;;
55314;SDS011;41619;42.816;23.226;2023-03-03T21:44:54;67.13;;;37.10;;
55314;SDS011;41619;42.816;23.226;2023-03-03T21:47:22;69.72;;;36.70;;
55314;SDS011;41619;42.816;23.226;2023-03-03T21:49:51;59.25;;;33.67;;
55314;SDS011;41619;42.816;23.226;2023-03-03T21:52:17;64.13;;;32.90;;
55314;SDS011;41619;42.816;23.226;2023-03-03T21:54:45;55.95;;;32.20;;
55314;SDS011;41619;42.816;23.226;2023-03-03T21:57:11;65.15;;;31.98;;
55314;SDS011;41619;42.816;23.226;2023-03-03T21:59:37;52.47;;;28.60;;
55314;SDS011;41619;42.816;23.226;2023-03-03T22:02:03;48.65;;;27.70;;
55314;SDS011;41619;42.816;23.226;2023-03-03T22:04:29;45.10;;;26.73;;
55314;SDS011;41619;42.816;23.226;2023-03-03T22:06:55;41.83;;;25.27;;
55314;SDS011;41619;42.816;23.226;2023-03-03T22:09:20;46.15;;;25.27;;
55314;SDS011;41619;42.816;23.226;2023-03-03T22:11:46;42.67;;;25.63;;